Hovedside
METAR-TAF:

METAR-TAF

Lufthavner :

Åbo, Finland

Åbo lufthavn

breddegrad: 60-31N, lengdegrad: 022-16E, høyde over havet: 49 m

Gjeldene værobservasjon

Denne rapporten ble laget for 27 minutter siden, klokken 20:20 UTC
Vind 13 kt fra Nordvest, skiftende mellom Vest-nordvest og Nord
Temperatur 6°C
Luftfuktighet 52%
Trykk 1010 hPa
Sikt 10 km eller mer
ingen skyer under 1500 m og ingen bygeskyer

METAR: EFTU 262020Z AUTO 32013KT 300V360 CAVOK 06/M03 Q1010 R08/0/0095

Tid: 23:47 (20:47 UTC)

Varsel

Denne rapporten ble laget for 10 minutter siden, klokken 20:37 UTC
Varsel gyldig fra 26. klokken 21 UTC til 27. klokken 21 UTC
Vind 11 kt fra Vest-nordvest
Sikt 10 km eller mer
ingen skyer under 1500 m og ingen bygeskyer
Blir
fra 27. klokken 13 UTC til 27. klokken 15 UTC
Vind 15 kt fra Vest-nordvest med vindkast opp mot 28 kt

TAF: EFTU 262037Z 2621/2721 30011KT CAVOK BECMG 2713/2715 30015G28KT

Værobservasjoner og værvarsel for over 4000 flyplasser (METAR- og TAF-rapporter).

Tilgjengelige stasjoner er representert av de røde og gule prikkene på kartet.

Hold musepekeren over prikken for å se navnet på stasjonen.

Klikk så for å se værobservasjoner og -varsler.

For å forandre kartet kan du klikke på den grønne knappen med svart kryss for å zoome inn, på den grønne knappen med strek for å zoome ut, eller på de grønne pilene for å se tilstøtende kart.


METAR-TAF: